createdAt,value
2022-09-02T00:01:01.796Z,92.70
2022-09-02T00:03:31.477Z,92.60
2022-09-02T00:06:00.296Z,92.80
2022-09-02T00:08:28.835Z,92.70
2022-09-02T00:10:57.286Z,92.80
2022-09-02T00:13:26.252Z,92.80
2022-09-02T00:15:54.456Z,92.80
2022-09-02T00:18:27.336Z,92.80
2022-09-02T00:20:57.108Z,92.90
2022-09-02T00:23:27.224Z,92.80
2022-09-02T00:25:55.881Z,93.00
2022-09-02T00:28:24.321Z,93.00
2022-09-02T00:30:52.901Z,93.10
2022-09-02T00:33:21.340Z,93.00
2022-09-02T00:35:52.537Z,93.30
2022-09-02T00:38:20.938Z,93.20
2022-09-02T00:40:51.441Z,93.10
2022-09-02T00:43:28.492Z,93.10
2022-09-02T00:45:56.968Z,93.10
2022-09-02T00:48:25.407Z,93.10
2022-09-02T00:50:55.493Z,93.20
2022-09-02T00:53:25.412Z,93.30
2022-09-02T00:55:54.085Z,93.30
2022-09-02T00:58:25.568Z,93.30
2022-09-02T01:00:57.925Z,93.30
2022-09-02T01:03:28.953Z,93.30
2022-09-02T01:06:01.117Z,93.40
2022-09-02T01:08:35.976Z,93.40
2022-09-02T01:11:06.678Z,93.40
2022-09-02T01:13:39.073Z,93.50
2022-09-02T01:16:13.328Z,93.40
2022-09-02T01:18:44.315Z,93.30
2022-09-02T01:21:14.135Z,92.80
2022-09-02T01:23:43.837Z,92.70
2022-09-02T01:26:12.461Z,92.60
2022-09-02T01:28:40.957Z,92.60
2022-09-02T01:31:09.368Z,92.50
2022-09-02T01:33:37.990Z,92.10
2022-09-02T01:36:08.246Z,92.00
2022-09-02T01:38:36.805Z,92.20
2022-09-02T01:41:07.156Z,92.20
2022-09-02T01:43:36.138Z,92.40
2022-09-02T01:46:04.535Z,92.50
2022-09-02T01:48:33.430Z,92.60
2022-09-02T01:51:04.690Z,92.60
2022-09-02T01:53:33.772Z,92.70
2022-09-02T01:56:02.368Z,92.70
2022-09-02T01:58:36.193Z,92.60
2022-09-02T02:01:05.139Z,92.60
2022-09-02T02:03:34.014Z,92.60
2022-09-02T02:06:02.810Z,92.70
2022-09-02T02:08:31.274Z,92.80
2022-09-02T02:11:01.842Z,92.70
2022-09-02T02:13:32.271Z,92.70
2022-09-02T02:16:02.479Z,92.90
2022-09-02T02:18:31.087Z,92.80
2022-09-02T02:21:00.884Z,92.80
2022-09-02T02:23:29.685Z,92.70
2022-09-02T02:25:58.040Z,92.70
2022-09-02T02:28:26.520Z,92.80
2022-09-02T02:30:55.173Z,92.80
2022-09-02T02:33:30.470Z,92.70
2022-09-02T02:36:05.751Z,92.80
2022-09-02T02:38:35.864Z,92.80
2022-09-02T02:41:06.402Z,92.80
2022-09-02T02:43:36.092Z,92.90
2022-09-02T02:46:06.157Z,92.90
2022-09-02T02:48:36.976Z,93.00
2022-09-02T02:51:07.012Z,93.20
2022-09-02T02:53:37.113Z,93.20
2022-09-02T02:56:06.527Z,93.30
2022-09-02T02:58:35.034Z,93.30
2022-09-02T03:01:04.275Z,93.50
2022-09-02T03:03:32.745Z,93.40
2022-09-02T03:06:03.669Z,93.40
2022-09-02T03:08:35.341Z,93.60
2022-09-02T03:11:07.086Z,93.50
2022-09-02T03:13:40.098Z,93.60
2022-09-02T03:16:08.858Z,93.50
2022-09-02T03:18:37.251Z,93.60
2022-09-02T03:21:10.338Z,93.60
2022-09-02T03:23:39.106Z,93.60
2022-09-02T03:26:12.042Z,93.60
2022-09-02T03:28:41.575Z,93.70
2022-09-02T03:31:16.012Z,93.80
2022-09-02T03:33:44.610Z,93.80
2022-09-02T03:36:27.395Z,93.80
2022-09-02T03:38:58.026Z,93.80
2022-09-02T03:41:26.931Z,93.80
2022-09-02T03:43:57.640Z,93.70
2022-09-02T03:46:26.397Z,93.70
2022-09-02T03:48:55.440Z,93.70
2022-09-02T03:51:26.958Z,93.70
2022-09-02T03:53:55.902Z,93.80
2022-09-02T03:56:25.670Z,93.80
2022-09-02T03:58:54.505Z,93.80
2022-09-02T04:01:31.726Z,93.70
2022-09-02T04:04:06.529Z,93.80
2022-09-02T04:06:38.164Z,93.80
2022-09-02T04:09:07.555Z,93.80
2022-09-02T04:11:37.254Z,93.80
2022-09-02T04:14:06.262Z,93.80
2022-09-02T04:16:35.709Z,93.90
2022-09-02T04:19:09.576Z,93.90
2022-09-02T04:21:42.042Z,93.90
2022-09-02T04:24:12.622Z,93.90
2022-09-02T04:26:45.488Z,94.10
2022-09-02T04:29:17.060Z,94.00
2022-09-02T04:31:49.650Z,93.90
2022-09-02T04:34:18.143Z,93.90
2022-09-02T04:36:49.754Z,93.90
2022-09-02T04:39:19.887Z,94.00
2022-09-02T04:41:48.400Z,94.00
2022-09-02T04:44:16.918Z,94.00
2022-09-02T04:46:50.442Z,94.00
2022-09-02T04:49:21.409Z,94.00
2022-09-02T04:51:55.582Z,94.00
2022-09-02T04:54:25.562Z,94.00
2022-09-02T04:56:55.645Z,94.10
2022-09-02T04:59:25.758Z,94.10
2022-09-02T05:02:08.818Z,94.00
2022-09-02T05:04:38.040Z,94.10
2022-09-02T05:07:13.178Z,94.10
2022-09-02T05:09:45.815Z,94.10
2022-09-02T05:12:15.220Z,94.10
2022-09-02T05:14:54.620Z,94.20
2022-09-02T05:17:26.548Z,94.20
2022-09-02T05:19:56.163Z,94.10
2022-09-02T05:22:29.370Z,94.10
2022-09-02T05:24:59.568Z,94.10
2022-09-02T05:27:30.486Z,94.20
2022-09-02T05:29:59.618Z,94.30
2022-09-02T05:32:34.360Z,94.20
2022-09-02T05:35:05.908Z,94.10
2022-09-02T05:37:37.834Z,94.30
2022-09-02T05:40:10.793Z,94.00
2022-09-02T05:42:43.536Z,93.90
2022-09-02T05:45:16.452Z,93.80
2022-09-02T05:47:45.458Z,93.90
2022-09-02T05:50:15.366Z,93.80
2022-09-02T05:52:51.092Z,93.70
2022-09-02T05:55:21.120Z,93.70
2022-09-02T05:57:50.541Z,93.70
2022-09-02T06:00:19.215Z,93.60
2022-09-02T06:02:56.909Z,93.60
2022-09-02T06:05:29.948Z,93.50
2022-09-02T06:08:08.540Z,93.40
2022-09-02T06:10:43.647Z,93.20
2022-09-02T06:13:22.730Z,92.90
2022-09-02T06:15:54.180Z,92.80
2022-09-02T06:18:26.786Z,92.50
2022-09-02T06:20:57.629Z,92.70
2022-09-02T06:23:34.608Z,92.20
2022-09-02T06:26:04.061Z,91.90
2022-09-02T06:28:32.946Z,91.90
2022-09-02T06:31:07.187Z,91.90
2022-09-02T06:33:35.567Z,91.70
2022-09-02T06:36:07.772Z,91.60
2022-09-02T06:38:45.206Z,91.50
2022-09-02T06:41:15.997Z,91.20
2022-09-02T06:43:45.509Z,90.90
2022-09-02T06:46:28.251Z,90.60
2022-09-02T06:48:59.451Z,90.30
2022-09-02T06:51:31.343Z,89.60
2022-09-02T06:54:03.452Z,89.40
2022-09-02T06:56:35.789Z,88.00
2022-09-02T06:59:06.179Z,86.90
2022-09-02T07:01:44.746Z,85.90
2022-09-02T07:04:40.209Z,85.80
2022-09-02T07:07:12.042Z,85.40
2022-09-02T07:09:48.116Z,85.50
2022-09-02T07:12:19.739Z,82.30
2022-09-02T07:15:02.411Z,82.20
2022-09-02T07:17:36.181Z,81.70
2022-09-02T07:20:07.165Z,81.80
2022-09-02T07:22:46.529Z,80.20
2022-09-02T07:25:19.880Z,79.50
2022-09-02T07:27:52.287Z,78.40
2022-09-02T07:30:21.323Z,78.90
2022-09-02T07:32:53.411Z,76.00
2022-09-02T07:35:25.007Z,75.60
2022-09-02T07:37:54.027Z,75.30
2022-09-02T07:40:24.768Z,74.50
2022-09-02T07:42:53.924Z,74.30
2022-09-02T07:45:23.871Z,74.00
2022-09-02T07:47:52.579Z,73.60
2022-09-02T07:50:22.334Z,72.10
2022-09-02T07:52:54.800Z,72.00
2022-09-02T07:55:26.412Z,72.20
2022-09-02T07:57:55.823Z,72.60
2022-09-02T08:00:27.667Z,70.70
2022-09-02T08:03:00.883Z,69.80
2022-09-02T08:05:35.375Z,70.00
2022-09-02T08:08:04.671Z,69.10
2022-09-02T08:10:34.969Z,68.70
2022-09-02T08:13:06.194Z,67.50
2022-09-02T08:15:36.443Z,67.50
2022-09-02T08:18:06.121Z,66.80
2022-09-02T08:20:35.624Z,66.80
2022-09-02T08:23:11.157Z,66.30
2022-09-02T08:25:43.231Z,65.90
2022-09-02T08:28:12.139Z,64.40
2022-09-02T08:30:41.149Z,64.00
2022-09-02T08:33:09.370Z,64.30
2022-09-02T08:35:37.695Z,63.30
2022-09-02T08:38:06.183Z,63.20
2022-09-02T08:40:38.798Z,63.00
2022-09-02T08:43:22.110Z,62.90
2022-09-02T08:45:51.104Z,63.70
2022-09-02T08:48:23.148Z,62.90
2022-09-02T08:50:57.727Z,61.80
2022-09-02T08:53:33.685Z,61.40
2022-09-02T08:56:04.599Z,60.00
2022-09-02T08:58:40.899Z,59.50
2022-09-02T09:01:15.727Z,59.40
2022-09-02T09:04:00.386Z,59.30
2022-09-02T09:06:39.588Z,59.70
2022-09-02T09:09:14.827Z,58.80
2022-09-02T09:11:50.395Z,59.80
2022-09-02T09:14:30.859Z,58.10
2022-09-02T09:17:01.281Z,58.80
2022-09-02T09:19:39.676Z,57.80
2022-09-02T09:22:08.180Z,56.60
2022-09-02T09:24:39.697Z,57.20
2022-09-02T09:27:13.905Z,56.30
2022-09-02T09:29:43.621Z,55.30
2022-09-02T09:32:21.641Z,55.40
2022-09-02T09:35:07.230Z,55.90
2022-09-02T09:37:39.634Z,54.80
2022-09-02T09:40:28.284Z,54.50
2022-09-02T09:42:59.072Z,53.60
2022-09-02T09:45:32.701Z,53.80
2022-09-02T09:48:28.019Z,53.50
2022-09-02T09:51:14.209Z,55.00
2022-09-02T09:53:42.703Z,53.50
2022-09-02T09:56:32.376Z,54.30
2022-09-02T09:59:10.646Z,54.20
2022-09-02T10:01:40.593Z,53.20
2022-09-02T10:04:42.178Z,53.90
2022-09-02T10:07:00.504Z,53.20
2022-09-02T10:09:33.890Z,53.40
2022-09-02T10:12:04.032Z,52.90
2022-09-02T10:14:36.634Z,52.60
2022-09-02T10:17:28.617Z,51.60
2022-09-02T10:20:04.786Z,52.10
2022-09-02T10:22:59.238Z,52.50
2022-09-02T10:25:35.240Z,51.50
2022-09-02T10:28:14.914Z,52.00
2022-09-02T10:30:53.931Z,51.70
2022-09-02T10:33:31.268Z,52.10
2022-09-02T10:36:07.513Z,52.50
2022-09-02T10:38:41.782Z,51.30
2022-09-02T10:41:22.246Z,51.60
2022-09-02T10:44:14.730Z,51.60
2022-09-02T10:46:51.435Z,50.90
2022-09-02T10:49:34.609Z,51.10
2022-09-02T10:52:11.530Z,50.70
2022-09-02T10:54:51.863Z,49.00
2022-09-02T10:57:24.907Z,49.20
2022-09-02T11:00:02.487Z,48.90
2022-09-02T11:02:38.714Z,50.10
2022-09-02T11:05:14.014Z,50.30
2022-09-02T11:07:47.366Z,50.40
2022-09-02T11:10:20.935Z,48.50
2022-09-02T11:12:56.158Z,49.40
2022-09-02T11:15:35.839Z,49.70
2022-09-02T11:18:10.525Z,48.80
2022-09-02T11:20:48.397Z,49.10
2022-09-02T11:23:24.333Z,49.10
2022-09-02T11:25:58.620Z,49.70
2022-09-02T11:28:34.532Z,49.10
2022-09-02T11:31:08.936Z,49.50
2022-09-02T11:33:48.304Z,48.30
2022-09-02T11:36:18.578Z,49.60
2022-09-02T11:38:52.668Z,48.70
2022-09-02T11:41:34.737Z,47.60
2022-09-02T11:44:20.496Z,47.60
2022-09-02T11:47:07.995Z,47.30
2022-09-02T11:50:10.014Z,47.10
2022-09-02T11:52:58.231Z,47.10
2022-09-02T11:55:34.824Z,47.50
2022-09-02T11:58:03.704Z,47.60
2022-09-02T12:00:36.684Z,46.70
2022-09-02T12:03:46.937Z,48.00
2022-09-02T12:06:13.914Z,48.00
2022-09-02T12:09:03.909Z,47.50
2022-09-02T12:11:47.118Z,47.70
2022-09-02T12:15:08.144Z,47.10
2022-09-02T12:17:46.426Z,45.80
2022-09-02T12:20:51.367Z,46.30
2022-09-02T12:23:57.776Z,45.80
2022-09-02T12:26:30.069Z,43.50
2022-09-02T12:29:13.791Z,44.90
2022-09-02T12:31:44.158Z,45.10
2022-09-02T12:34:53.227Z,45.30
2022-09-02T12:37:54.528Z,44.80
2022-09-02T12:40:35.104Z,44.80
2022-09-02T12:43:16.827Z,45.00
2022-09-02T12:45:47.151Z,44.70
2022-09-02T12:48:30.334Z,44.60
2022-09-02T12:51:06.961Z,43.80
2022-09-02T12:53:41.187Z,44.00
2022-09-02T12:56:21.296Z,44.10
2022-09-02T12:58:54.784Z,45.00
2022-09-02T13:01:38.772Z,43.80
2022-09-02T13:04:26.434Z,44.70
2022-09-02T13:07:38.443Z,43.80
2022-09-02T13:10:28.562Z,43.70
2022-09-02T13:13:21.167Z,44.50
2022-09-02T13:16:17.368Z,43.60
2022-09-02T13:19:21.271Z,44.20
2022-09-02T13:22:23.991Z,43.10
2022-09-02T13:25:25.671Z,43.60
2022-09-02T13:28:28.351Z,43.30
2022-09-02T13:31:08.519Z,43.10
2022-09-02T13:33:41.903Z,41.90
2022-09-02T13:36:11.573Z,37.80
2022-09-02T13:38:40.045Z,36.90
2022-09-02T13:41:09.428Z,36.60
2022-09-02T13:43:37.830Z,36.00
2022-09-02T13:46:07.711Z,35.10
2022-09-02T13:48:40.937Z,34.50
2022-09-02T13:51:14.522Z,33.90
2022-09-02T13:54:18.575Z,33.50
2022-09-02T13:56:36.338Z,33.40
2022-09-02T13:59:04.556Z,33.40
2022-09-02T14:01:37.194Z,33.10
2022-09-02T14:04:11.399Z,32.40
2022-09-02T14:06:43.430Z,31.10
2022-09-02T14:09:21.415Z,30.10
2022-09-02T14:11:51.239Z,30.80
2022-09-02T14:14:23.547Z,31.20
2022-09-02T14:16:53.696Z,30.90
2022-09-02T14:19:26.651Z,31.30
2022-09-02T14:21:57.399Z,31.50
2022-09-02T14:24:27.360Z,30.80
2022-09-02T14:26:57.359Z,30.30
2022-09-02T14:29:27.421Z,30.60
2022-09-02T14:32:13.703Z,31.20
2022-09-02T14:34:43.212Z,30.80
2022-09-02T14:37:24.421Z,29.90
2022-09-02T14:39:54.351Z,29.40
2022-09-02T14:42:22.956Z,29.70
2022-09-02T14:44:51.312Z,30.10
2022-09-02T14:47:24.373Z,30.00
2022-09-02T14:49:55.481Z,30.00
2022-09-02T14:52:27.492Z,30.00
2022-09-02T14:54:57.257Z,29.80
2022-09-02T14:57:28.613Z,29.80
2022-09-02T15:00:02.607Z,30.10
2022-09-02T15:02:34.820Z,30.00
2022-09-02T15:05:05.116Z,29.80
2022-09-02T15:07:33.833Z,29.80
2022-09-02T15:10:02.155Z,30.10
2022-09-02T15:12:34.668Z,30.70
2022-09-02T15:15:02.976Z,30.60
2022-09-02T15:17:32.563Z,30.90
2022-09-02T15:20:01.096Z,31.10
2022-09-02T15:22:30.153Z,30.40
2022-09-02T15:24:58.428Z,30.80
2022-09-02T15:27:26.850Z,30.30
2022-09-02T15:29:55.150Z,30.20
2022-09-02T15:32:23.448Z,30.60
2022-09-02T15:34:53.174Z,30.70
2022-09-02T15:37:21.502Z,30.90
2022-09-02T15:39:51.742Z,31.40
2022-09-02T15:42:20.121Z,31.30
2022-09-02T15:44:48.399Z,31.70
2022-09-02T15:47:16.676Z,31.40
2022-09-02T15:49:44.771Z,31.90
2022-09-02T15:52:14.352Z,31.10
2022-09-02T15:54:42.669Z,31.50
2022-09-02T15:57:11.667Z,31.80
2022-09-02T15:59:39.983Z,32.20
2022-09-02T16:02:08.284Z,32.40
2022-09-02T16:04:36.488Z,32.10
2022-09-02T16:07:04.898Z,32.00
2022-09-02T16:09:34.729Z,32.20
2022-09-02T16:12:03.338Z,32.20
2022-09-02T16:14:31.614Z,32.20
2022-09-02T16:16:59.792Z,32.40
2022-09-02T16:19:30.379Z,32.70
2022-09-02T16:21:59.216Z,33.20
2022-09-02T16:24:27.587Z,33.30
2022-09-02T16:26:57.305Z,34.20
2022-09-02T16:29:28.281Z,34.10
2022-09-02T16:34:46.951Z,35.20
2022-09-02T16:37:15.217Z,35.10
2022-09-02T16:39:43.958Z,35.20
2022-09-02T16:42:13.748Z,35.30
2022-09-02T16:44:42.092Z,35.50
2022-09-02T16:47:12.920Z,35.40
2022-09-02T16:49:42.347Z,36.30
2022-09-02T16:52:10.709Z,36.30
2022-09-02T16:54:41.019Z,36.10
2022-09-02T16:57:09.525Z,36.50
2022-09-02T16:59:39.348Z,36.10
2022-09-02T17:02:08.016Z,35.80
2022-09-02T17:04:36.578Z,36.40
2022-09-02T17:07:05.151Z,37.10
2022-09-02T17:09:33.236Z,37.20
2022-09-02T17:12:01.568Z,37.60
2022-09-02T17:14:29.686Z,37.80
2022-09-02T17:16:59.474Z,38.10
2022-09-02T17:19:32.061Z,38.10
2022-09-02T17:22:01.406Z,38.50
2022-09-02T17:24:31.007Z,38.90
2022-09-02T17:27:00.543Z,39.70
2022-09-02T17:32:20.565Z,39.80
2022-09-02T17:34:51.223Z,40.30
2022-09-02T17:37:19.904Z,40.70
2022-09-02T17:39:49.116Z,41.30
2022-09-02T17:42:16.724Z,42.60
2022-09-02T17:44:45.035Z,42.90
2022-09-02T17:47:15.937Z,42.90
2022-09-02T17:49:45.755Z,44.00
2022-09-02T17:52:15.936Z,44.40
2022-09-02T17:54:44.893Z,45.40
2022-09-02T17:57:31.051Z,46.10
2022-09-02T18:00:10.484Z,47.00
2022-09-02T18:03:14.582Z,47.00
2022-09-02T18:06:10.384Z,47.20
2022-09-02T18:08:49.453Z,48.10
2022-09-02T18:11:18.059Z,48.10
2022-09-02T18:13:57.519Z,48.70
2022-09-02T18:16:32.411Z,48.00
2022-09-02T18:19:13.205Z,48.80
2022-09-02T18:22:05.227Z,49.90
2022-09-02T18:25:08.620Z,50.20
2022-09-02T18:27:52.443Z,50.90
2022-09-02T18:30:23.661Z,51.30
2022-09-02T18:33:12.055Z,52.00
2022-09-02T18:35:50.644Z,52.60
2022-09-02T18:38:28.475Z,52.90
2022-09-02T18:41:12.123Z,54.00
2022-09-02T18:43:49.124Z,53.80
2022-09-02T18:46:20.592Z,54.40
2022-09-02T18:48:53.513Z,53.70
2022-09-02T18:51:31.407Z,55.40
2022-09-02T18:54:13.020Z,55.40
2022-09-02T18:56:48.424Z,55.40
2022-09-02T18:59:22.799Z,56.60
2022-09-02T19:02:01.753Z,56.60
2022-09-02T19:04:32.575Z,57.30
2022-09-02T19:07:15.280Z,57.30
2022-09-02T19:09:45.004Z,58.30
2022-09-02T19:12:14.507Z,58.10
2022-09-02T19:14:43.117Z,58.30
2022-09-02T19:17:12.648Z,58.20
2022-09-02T19:19:41.231Z,59.10
2022-09-02T19:22:11.932Z,59.30
2022-09-02T19:24:46.377Z,59.20
2022-09-02T19:27:18.472Z,59.60
2022-09-02T19:29:51.372Z,60.40
2022-09-02T19:32:26.139Z,60.00
2022-09-02T19:34:54.709Z,59.80
2022-09-02T19:37:23.821Z,60.90
2022-09-02T19:39:54.183Z,60.10
2022-09-02T19:42:24.150Z,61.10
2022-09-02T19:44:52.632Z,60.80
2022-09-02T19:48:05.529Z,61.70
2022-09-02T19:50:12.064Z,62.70
2022-09-02T19:52:42.980Z,62.80
2022-09-02T19:55:15.181Z,63.40
2022-09-02T19:57:43.901Z,63.30
2022-09-02T20:00:14.009Z,63.90
2022-09-02T20:02:42.525Z,63.50
2022-09-02T20:05:12.322Z,63.20
2022-09-02T20:07:40.825Z,63.60
2022-09-02T20:10:10.643Z,63.50
2022-09-02T20:12:40.360Z,64.20
2022-09-02T20:15:09.870Z,64.30
2022-09-02T20:17:38.186Z,64.80
2022-09-02T20:20:12.594Z,65.10
2022-09-02T20:22:41.096Z,65.70
2022-09-02T20:25:09.612Z,65.50
2022-09-02T20:27:51.592Z,65.90
2022-09-02T20:30:20.817Z,65.80
2022-09-02T20:32:59.743Z,65.40
2022-09-02T20:35:42.264Z,66.40
2022-09-02T20:38:25.966Z,66.40
2022-09-02T20:41:04.778Z,67.70
2022-09-02T20:43:49.994Z,67.40
2022-09-02T20:46:30.521Z,67.10
2022-09-02T20:49:16.213Z,68.00
2022-09-02T20:51:54.823Z,67.90
2022-09-02T20:54:37.453Z,68.90
2022-09-02T20:57:20.506Z,68.50
2022-09-02T21:00:01.024Z,68.50
2022-09-02T21:02:33.238Z,69.20
2022-09-02T21:05:05.158Z,69.70
2022-09-02T21:07:36.695Z,69.50
2022-09-02T21:10:09.445Z,69.90
2022-09-02T21:12:43.115Z,69.90
2022-09-02T21:15:25.452Z,70.00
2022-09-02T21:18:00.448Z,70.40
2022-09-02T21:20:38.136Z,70.90
2022-09-02T21:23:12.558Z,70.80
2022-09-02T21:25:50.575Z,70.50
2022-09-02T21:28:24.972Z,70.90
2022-09-02T21:30:59.570Z,70.90
2022-09-02T21:33:32.488Z,71.90
2022-09-02T21:36:02.475Z,71.60
2022-09-02T21:38:37.014Z,71.50
2022-09-02T21:41:18.724Z,71.90
2022-09-02T21:43:57.087Z,72.90
2022-09-02T21:46:34.518Z,73.30
2022-09-02T21:49:07.696Z,73.60
2022-09-02T21:51:40.100Z,72.90
2022-09-02T21:54:27.102Z,72.80
2022-09-02T21:57:14.316Z,73.30
2022-09-02T21:59:56.420Z,73.20
2022-09-02T22:02:33.015Z,73.20
2022-09-02T22:05:06.844Z,73.10
2022-09-02T22:07:39.161Z,73.70
2022-09-02T22:10:13.691Z,73.80
2022-09-02T22:12:48.845Z,74.30
2022-09-02T22:15:28.371Z,74.60
2022-09-02T22:18:10.870Z,75.00
2022-09-02T22:20:43.823Z,75.40
2022-09-02T22:23:25.736Z,75.90
2022-09-02T22:25:55.917Z,76.90
2022-09-02T22:28:31.333Z,75.70
2022-09-02T22:31:05.689Z,75.30
2022-09-02T22:33:49.015Z,75.40
2022-09-02T22:36:29.634Z,76.40
2022-09-02T22:39:01.397Z,75.70
2022-09-02T22:41:39.731Z,76.60
2022-09-02T22:44:10.525Z,75.70
2022-09-02T22:47:04.126Z,76.20
2022-09-02T22:49:56.067Z,77.10
2022-09-02T22:52:49.829Z,77.60
2022-09-02T22:55:39.480Z,77.10
2022-09-02T22:58:21.370Z,77.50
2022-09-02T23:00:54.993Z,78.10
2022-09-02T23:03:30.035Z,77.50
2022-09-02T23:06:11.503Z,77.10
2022-09-02T23:08:43.881Z,77.90
2022-09-02T23:11:18.186Z,78.30
2022-09-02T23:13:56.843Z,78.10
2022-09-02T23:16:35.166Z,78.80
2022-09-02T23:19:12.865Z,78.30
2022-09-02T23:21:54.316Z,78.20
2022-09-02T23:24:32.965Z,79.00
2022-09-02T23:27:07.074Z,79.60
2022-09-02T23:29:35.896Z,79.50
2022-09-02T23:32:24.681Z,79.10
2022-09-02T23:35:12.630Z,79.70
2022-09-02T23:37:54.698Z,80.20
2022-09-02T23:40:29.922Z,80.00
2022-09-02T23:42:59.478Z,80.00
2022-09-02T23:45:32.876Z,80.20
2022-09-02T23:48:17.283Z,80.80
2022-09-02T23:50:56.389Z,82.40
2022-09-02T23:53:29.884Z,82.00
2022-09-02T23:56:10.020Z,82.00
2022-09-02T23:58:57.464Z,82.90
